sensor_id;sensor_type;location;lat;lon;timestamp;pressure;altitude;pressure_sealevel;temperature;humidity
53932;BME280;39844;52.496;13.482;2024-01-10T00:01:35;103396.63;;;-7.27;83.24
53932;BME280;39844;52.496;13.482;2024-01-10T00:04:00;103381.88;;;-7.30;82.86
53932;BME280;39844;52.496;13.482;2024-01-10T00:06:25;103383.34;;;-7.32;82.79
53932;BME280;39844;52.496;13.482;2024-01-10T00:08:50;103383.03;;;-7.35;82.55
53932;BME280;39844;52.496;13.482;2024-01-10T00:11:16;103385.41;;;-7.36;82.73
53932;BME280;39844;52.496;13.482;2024-01-10T00:13:41;103381.06;;;-7.37;82.84
53932;BME280;39844;52.496;13.482;2024-01-10T00:16:07;103385.06;;;-7.39;82.81
53932;BME280;39844;52.496;13.482;2024-01-10T00:18:33;103374.84;;;-7.39;82.82
53932;BME280;39844;52.496;13.482;2024-01-10T00:20:58;103381.63;;;-7.40;83.19
53932;BME280;39844;52.496;13.482;2024-01-10T00:23:24;103376.66;;;-7.38;83.39
53932;BME280;39844;52.496;13.482;2024-01-10T00:25:49;103379.94;;;-7.39;83.14
53932;BME280;39844;52.496;13.482;2024-01-10T00:28:15;103379.38;;;-7.37;83.58
53932;BME280;39844;52.496;13.482;2024-01-10T00:30:40;103366.81;;;-7.35;83.79
53932;BME280;39844;52.496;13.482;2024-01-10T00:33:05;103363.34;;;-7.36;83.68
53932;BME280;39844;52.496;13.482;2024-01-10T00:35:31;103366.81;;;-7.35;83.59
53932;BME280;39844;52.496;13.482;2024-01-10T00:37:56;103371.91;;;-7.35;83.61
53932;BME280;39844;52.496;13.482;2024-01-10T00:40:23;103365.91;;;-7.36;83.47
53932;BME280;39844;52.496;13.482;2024-01-10T00:42:48;103365.75;;;-7.37;83.53
53932;BME280;39844;52.496;13.482;2024-01-10T00:45:14;103362.09;;;-7.39;83.69
53932;BME280;39844;52.496;13.482;2024-01-10T00:47:39;103361.38;;;-7.38;84.23
53932;BME280;39844;52.496;13.482;2024-01-10T00:50:05;103356.28;;;-7.38;83.90
53932;BME280;39844;52.496;13.482;2024-01-10T00:52:30;103353.00;;;-7.37;84.09
53932;BME280;39844;52.496;13.482;2024-01-10T00:54:56;103350.44;;;-7.37;83.91
53932;BME280;39844;52.496;13.482;2024-01-10T00:57:21;103349.69;;;-7.36;83.91
53932;BME280;39844;52.496;13.482;2024-01-10T00:59:46;103354.78;;;-7.36;83.84
53932;BME280;39844;52.496;13.482;2024-01-10T01:02:11;103353.38;;;-7.41;83.38
53932;BME280;39844;52.496;13.482;2024-01-10T01:04:37;103353.38;;;-7.41;83.74
53932;BME280;39844;52.496;13.482;2024-01-10T01:07:02;103354.84;;;-7.43;83.68
53932;BME280;39844;52.496;13.482;2024-01-10T01:09:27;103349.03;;;-7.42;83.85
53932;BME280;39844;52.496;13.482;2024-01-10T01:11:53;103341.38;;;-7.42;84.30
53932;BME280;39844;52.496;13.482;2024-01-10T01:14:18;103343.94;;;-7.42;83.97
53932;BME280;39844;52.496;13.482;2024-01-10T01:16:43;103347.22;;;-7.43;83.70
53932;BME280;39844;52.496;13.482;2024-01-10T01:19:09;103344.50;;;-7.45;83.76
53932;BME280;39844;52.496;13.482;2024-01-10T01:21:34;103349.41;;;-7.46;83.55
53932;BME280;39844;52.496;13.482;2024-01-10T01:23:59;103349.59;;;-7.45;84.15
53932;BME280;39844;52.496;13.482;2024-01-10T01:26:24;103349.41;;;-7.46;84.02
53932;BME280;39844;52.496;13.482;2024-01-10T01:28:50;103344.16;;;-7.48;83.52
53932;BME280;39844;52.496;13.482;2024-01-10T01:31:15;103345.03;;;-7.47;83.73
53932;BME280;39844;52.496;13.482;2024-01-10T01:33:40;103340.69;;;-7.48;83.63
53932;BME280;39844;52.496;13.482;2024-01-10T01:36:06;103351.97;;;-7.46;83.73
53932;BME280;39844;52.496;13.482;2024-01-10T01:38:32;103354.38;;;-7.48;83.45
53932;BME280;39844;52.496;13.482;2024-01-10T01:40:57;103348.34;;;-7.48;83.60
53932;BME280;39844;52.496;13.482;2024-01-10T01:43:24;103339.63;;;-7.50;83.65
53932;BME280;39844;52.496;13.482;2024-01-10T01:45:54;103341.09;;;-7.52;83.65
53932;BME280;39844;52.496;13.482;2024-01-10T01:48:21;103344.41;;;-7.53;83.58
53932;BME280;39844;52.496;13.482;2024-01-10T01:50:47;103339.44;;;-7.52;83.85
53932;BME280;39844;52.496;13.482;2024-01-10T01:53:14;103336.91;;;-7.52;83.86
53932;BME280;39844;52.496;13.482;2024-01-10T01:55:42;103345.63;;;-7.50;84.11
53932;BME280;39844;52.496;13.482;2024-01-10T01:58:08;103331.78;;;-7.52;84.22
53932;BME280;39844;52.496;13.482;2024-01-10T02:00:34;103336.91;;;-7.52;83.96
53932;BME280;39844;52.496;13.482;2024-01-10T02:03:00;103335.09;;;-7.53;84.03
53932;BME280;39844;52.496;13.482;2024-01-10T02:05:25;103336.75;;;-7.53;84.13
53932;BME280;39844;52.496;13.482;2024-01-10T02:07:51;103335.97;;;-7.52;84.25
53932;BME280;39844;52.496;13.482;2024-01-10T02:10:17;103334.19;;;-7.53;84.35
53932;BME280;39844;52.496;13.482;2024-01-10T02:12:43;103341.09;;;-7.52;84.48
53932;BME280;39844;52.496;13.482;2024-01-10T02:15:09;103337.47;;;-7.54;83.96
53932;BME280;39844;52.496;13.482;2024-01-10T02:17:34;103338.03;;;-7.57;83.84
53932;BME280;39844;52.496;13.482;2024-01-10T02:20:13;103327.69;;;-7.58;83.55
53932;BME280;39844;52.496;13.482;2024-01-10T02:22:40;103326.44;;;-7.62;83.23
53932;BME280;39844;52.496;13.482;2024-01-10T02:25:07;103335.00;;;-7.61;83.88
53932;BME280;39844;52.496;13.482;2024-01-10T02:27:34;103335.91;;;-7.61;84.07
53932;BME280;39844;52.496;13.482;2024-01-10T02:30:02;103334.28;;;-7.60;84.18
53932;BME280;39844;52.496;13.482;2024-01-10T02:32:27;103334.06;;;-7.62;84.14
53932;BME280;39844;52.496;13.482;2024-01-10T02:34:53;103340.09;;;-7.61;84.06
53932;BME280;39844;52.496;13.482;2024-01-10T02:37:18;103338.25;;;-7.62;84.05
53932;BME280;39844;52.496;13.482;2024-01-10T02:39:43;103337.38;;;-7.63;84.04
53932;BME280;39844;52.496;13.482;2024-01-10T02:42:08;103335.91;;;-7.61;84.19
53932;BME280;39844;52.496;13.482;2024-01-10T02:44:34;103335.72;;;-7.62;83.80
53932;BME280;39844;52.496;13.482;2024-01-10T02:46:59;103330.63;;;-7.62;84.00
53932;BME280;39844;52.496;13.482;2024-01-10T02:49:24;103320.41;;;-7.62;84.11
53932;BME280;39844;52.496;13.482;2024-01-10T02:51:50;103321.19;;;-7.63;84.45
53932;BME280;39844;52.496;13.482;2024-01-10T02:54:15;103323.72;;;-7.63;84.06
53932;BME280;39844;52.496;13.482;2024-01-10T02:56:40;103321.19;;;-7.63;83.94
53932;BME280;39844;52.496;13.482;2024-01-10T02:59:05;103333.72;;;-7.65;83.75
53932;BME280;39844;52.496;13.482;2024-01-10T03:01:31;103327.75;;;-7.65;83.60
53932;BME280;39844;52.496;13.482;2024-01-10T03:03:56;103325.94;;;-7.66;83.64
53932;BME280;39844;52.496;13.482;2024-01-10T03:06:21;103327.56;;;-7.67;83.88
53932;BME280;39844;52.496;13.482;2024-01-10T03:08:47;103323.38;;;-7.66;83.83
53932;BME280;39844;52.496;13.482;2024-01-10T03:11:12;103315.41;;;-7.70;83.54
53932;BME280;39844;52.496;13.482;2024-01-10T03:13:37;103327.41;;;-7.68;83.63
53932;BME280;39844;52.496;13.482;2024-01-10T03:16:03;103316.16;;;-7.71;83.55
53932;BME280;39844;52.496;13.482;2024-01-10T03:18:28;103320.50;;;-7.70;83.38
53932;BME280;39844;52.496;13.482;2024-01-10T03:20:53;103319.75;;;-7.68;83.88
53932;BME280;39844;52.496;13.482;2024-01-10T03:23:19;103319.00;;;-7.68;84.05
53932;BME280;39844;52.496;13.482;2024-01-10T03:25:44;103319.00;;;-7.68;84.22
53932;BME280;39844;52.496;13.482;2024-01-10T03:28:09;103318.28;;;-7.66;84.06
53932;BME280;39844;52.496;13.482;2024-01-10T03:30:34;103311.69;;;-7.64;84.28
53932;BME280;39844;52.496;13.482;2024-01-10T03:33:00;103311.91;;;-7.63;84.33
53932;BME280;39844;52.496;13.482;2024-01-10T03:35:25;103312.78;;;-7.62;84.50
53932;BME280;39844;52.496;13.482;2024-01-10T03:37:50;103308.59;;;-7.62;84.57
53932;BME280;39844;52.496;13.482;2024-01-10T03:40:15;103310.22;;;-7.62;84.41
53932;BME280;39844;52.496;13.482;2024-01-10T03:42:41;103310.97;;;-7.63;83.90
53932;BME280;39844;52.496;13.482;2024-01-10T03:45:06;103317.00;;;-7.63;84.30
53932;BME280;39844;52.496;13.482;2024-01-10T03:47:31;103315.50;;;-7.61;84.50
53932;BME280;39844;52.496;13.482;2024-01-10T03:49:57;103304.97;;;-7.64;83.73
53932;BME280;39844;52.496;13.482;2024-01-10T03:52:22;103302.25;;;-7.65;83.47
53932;BME280;39844;52.496;13.482;2024-01-10T03:54:47;103298.63;;;-7.68;83.40
53932;BME280;39844;52.496;13.482;2024-01-10T03:57:12;103293.38;;;-7.69;83.59
53932;BME280;39844;52.496;13.482;2024-01-10T03:59:38;103294.09;;;-7.70;83.23
53932;BME280;39844;52.496;13.482;2024-01-10T04:02:03;103292.28;;;-7.71;83.27
53932;BME280;39844;52.496;13.482;2024-01-10T04:04:28;103293.38;;;-7.69;83.52
53932;BME280;39844;52.496;13.482;2024-01-10T04:06:54;103289.00;;;-7.70;83.09
53932;BME280;39844;52.496;13.482;2024-01-10T04:09:19;103283.72;;;-7.72;82.55
53932;BME280;39844;52.496;13.482;2024-01-10T04:11:45;103292.09;;;-7.73;82.68
53932;BME280;39844;52.496;13.482;2024-01-10T04:14:10;103285.56;;;-7.71;82.87
53932;BME280;39844;52.496;13.482;2024-01-10T04:16:35;103285.56;;;-7.71;82.76
53932;BME280;39844;52.496;13.482;2024-01-10T04:19:01;103285.88;;;-7.68;83.19
53932;BME280;39844;52.496;13.482;2024-01-10T04:21:26;103281.53;;;-7.68;82.63
53932;BME280;39844;52.496;13.482;2024-01-10T04:23:51;103278.97;;;-7.68;82.39
53932;BME280;39844;52.496;13.482;2024-01-10T04:26:17;103284.81;;;-7.70;82.05
53932;BME280;39844;52.496;13.482;2024-01-10T04:28:42;103285.00;;;-7.68;82.47
53932;BME280;39844;52.496;13.482;2024-01-10T04:31:07;103274.59;;;-7.70;82.10
53932;BME280;39844;52.496;13.482;2024-01-10T04:33:33;103275.53;;;-7.69;82.54
53932;BME280;39844;52.496;13.482;2024-01-10T04:35:58;103270.41;;;-7.69;82.87
53932;BME280;39844;52.496;13.482;2024-01-10T04:38:23;103274.59;;;-7.70;82.68
53932;BME280;39844;52.496;13.482;2024-01-10T04:40:48;103285.72;;;-7.69;82.60
53932;BME280;39844;52.496;13.482;2024-01-10T04:43:14;103284.81;;;-7.70;82.68
53932;BME280;39844;52.496;13.482;2024-01-10T04:45:39;103284.81;;;-7.70;82.81
53932;BME280;39844;52.496;13.482;2024-01-10T04:48:04;103285.72;;;-7.69;82.70
53932;BME280;39844;52.496;13.482;2024-01-10T04:50:30;103271.00;;;-7.72;82.93
53932;BME280;39844;52.496;13.482;2024-01-10T04:52:55;103275.19;;;-7.72;82.81
53932;BME280;39844;52.496;13.482;2024-01-10T04:55:20;103271.56;;;-7.74;82.68
53932;BME280;39844;52.496;13.482;2024-01-10T04:57:46;103274.84;;;-7.75;83.11
53932;BME280;39844;52.496;13.482;2024-01-10T05:00:14;103277.22;;;-7.77;82.98
53932;BME280;39844;52.496;13.482;2024-01-10T05:02:39;103290.13;;;-7.75;82.99
53932;BME280;39844;52.496;13.482;2024-01-10T05:05:05;103286.16;;;-7.80;83.14
53932;BME280;39844;52.496;13.482;2024-01-10T05:07:31;103290.38;;;-7.81;83.12
53932;BME280;39844;52.496;13.482;2024-01-10T05:09:56;103282.56;;;-7.82;83.02
53932;BME280;39844;52.496;13.482;2024-01-10T05:12:21;103287.66;;;-7.82;83.23
53932;BME280;39844;52.496;13.482;2024-01-10T05:14:47;103291.84;;;-7.83;83.15
53932;BME280;39844;52.496;13.482;2024-01-10T05:17:12;103292.59;;;-7.84;83.20
53932;BME280;39844;52.496;13.482;2024-01-10T05:19:37;103287.50;;;-7.84;82.93
53932;BME280;39844;52.496;13.482;2024-01-10T05:22:03;103291.69;;;-7.84;82.89
53932;BME280;39844;52.496;13.482;2024-01-10T05:24:28;103289.13;;;-7.84;83.05
53932;BME280;39844;52.496;13.482;2024-01-10T05:26:53;103290.03;;;-7.84;83.14
53932;BME280;39844;52.496;13.482;2024-01-10T05:29:19;103291.84;;;-7.83;83.07
53932;BME280;39844;52.496;13.482;2024-01-10T05:31:44;103292.75;;;-7.82;83.04
53932;BME280;39844;52.496;13.482;2024-01-10T05:34:09;103292.94;;;-7.81;82.97
53932;BME280;39844;52.496;13.482;2024-01-10T05:36:34;103289.63;;;-7.80;83.19
53932;BME280;39844;52.496;13.482;2024-01-10T05:39:00;103285.28;;;-7.81;82.92
53932;BME280;39844;52.496;13.482;2024-01-10T05:41:25;103287.84;;;-7.81;82.56
53932;BME280;39844;52.496;13.482;2024-01-10T05:43:50;103290.38;;;-7.81;82.52
53932;BME280;39844;52.496;13.482;2024-01-10T05:46:15;103278.38;;;-7.82;82.10
53932;BME280;39844;52.496;13.482;2024-01-10T05:48:41;103279.09;;;-7.83;81.83
53932;BME280;39844;52.496;13.482;2024-01-10T05:51:06;103282.56;;;-7.82;81.65
53932;BME280;39844;52.496;13.482;2024-01-10T05:53:31;103288.56;;;-7.82;81.88
53932;BME280;39844;52.496;13.482;2024-01-10T05:55:57;103285.28;;;-7.81;82.01
53932;BME280;39844;52.496;13.482;2024-01-10T05:58:22;103281.97;;;-7.80;82.19
53932;BME280;39844;52.496;13.482;2024-01-10T06:00:47;103281.97;;;-7.80;82.06
53932;BME280;39844;52.496;13.482;2024-01-10T06:03:12;103280.19;;;-7.81;82.29
53932;BME280;39844;52.496;13.482;2024-01-10T06:05:38;103271.78;;;-7.80;82.68
53932;BME280;39844;52.496;13.482;2024-01-10T06:08:03;103273.63;;;-7.79;82.84
53932;BME280;39844;52.496;13.482;2024-01-10T06:10:29;103283.81;;;-7.79;82.53
53932;BME280;39844;52.496;13.482;2024-01-10T06:12:54;103276.88;;;-7.80;82.56
53932;BME280;39844;52.496;13.482;2024-01-10T06:15:19;103276.88;;;-7.80;82.56
53932;BME280;39844;52.496;13.482;2024-01-10T06:17:44;103264.91;;;-7.81;82.52
53932;BME280;39844;52.496;13.482;2024-01-10T06:20:10;103264.00;;;-7.81;82.59
53932;BME280;39844;52.496;13.482;2024-01-10T06:22:35;103262.16;;;-7.82;82.65
53932;BME280;39844;52.496;13.482;2024-01-10T06:25:01;103259.63;;;-7.82;83.04
53932;BME280;39844;52.496;13.482;2024-01-10T06:27:26;103253.47;;;-7.84;82.64
53932;BME280;39844;52.496;13.482;2024-01-10T06:29:51;103248.03;;;-7.87;82.97
53932;BME280;39844;52.496;13.482;2024-01-10T06:32:16;103248.94;;;-7.87;82.90
53932;BME280;39844;52.496;13.482;2024-01-10T06:34:42;103262.72;;;-7.85;82.42
53932;BME280;39844;52.496;13.482;2024-01-10T06:37:07;103262.72;;;-7.85;82.01
53932;BME280;39844;52.496;13.482;2024-01-10T06:39:33;103266.34;;;-7.83;81.84
53932;BME280;39844;52.496;13.482;2024-01-10T06:41:58;103267.25;;;-7.82;81.93
53932;BME280;39844;52.496;13.482;2024-01-10T06:44:24;103264.56;;;-7.84;81.28
53932;BME280;39844;52.496;13.482;2024-01-10T06:46:49;103259.47;;;-7.84;81.76
53932;BME280;39844;52.496;13.482;2024-01-10T06:49:14;103257.25;;;-7.81;82.14
53932;BME280;39844;52.496;13.482;2024-01-10T06:51:40;103268.19;;;-7.82;81.99
53932;BME280;39844;52.496;13.482;2024-01-10T06:54:05;103266.53;;;-7.81;82.29
53932;BME280;39844;52.496;13.482;2024-01-10T06:56:33;103269.09;;;-7.81;82.03
53932;BME280;39844;52.496;13.482;2024-01-10T06:58:59;103263.06;;;-7.82;82.11
53932;BME280;39844;52.496;13.482;2024-01-10T07:01:25;103264.00;;;-7.81;82.35
53932;BME280;39844;52.496;13.482;2024-01-10T07:03:52;103260.69;;;-7.80;82.03
53932;BME280;39844;52.496;13.482;2024-01-10T07:06:17;103264.00;;;-7.81;81.78
53932;BME280;39844;52.496;13.482;2024-01-10T07:08:43;103268.34;;;-7.80;82.38
53932;BME280;39844;52.496;13.482;2024-01-10T07:11:08;103261.59;;;-7.80;82.13
53932;BME280;39844;52.496;13.482;2024-01-10T07:13:34;103263.22;;;-7.80;82.24
53932;BME280;39844;52.496;13.482;2024-01-10T07:15:59;103254.72;;;-7.81;82.02
53932;BME280;39844;52.496;13.482;2024-01-10T07:18:25;103257.41;;;-7.79;82.42
53932;BME280;39844;52.496;13.482;2024-01-10T07:20:50;103261.03;;;-7.77;82.52
53932;BME280;39844;52.496;13.482;2024-01-10T07:23:15;103259.38;;;-7.77;82.46
53932;BME280;39844;52.496;13.482;2024-01-10T07:25:43;103253.56;;;-7.76;82.69
53932;BME280;39844;52.496;13.482;2024-01-10T07:28:08;103258.66;;;-7.76;82.40
53932;BME280;39844;52.496;13.482;2024-01-10T07:30:33;103264.63;;;-7.75;82.87
53932;BME280;39844;52.496;13.482;2024-01-10T07:32:59;103265.56;;;-7.75;82.33
53932;BME280;39844;52.496;13.482;2024-01-10T07:35:25;103258.81;;;-7.74;82.12
53932;BME280;39844;52.496;13.482;2024-01-10T07:37:50;103261.38;;;-7.74;81.89
53932;BME280;39844;52.496;13.482;2024-01-10T07:40:16;103259.72;;;-7.74;81.75
53932;BME280;39844;52.496;13.482;2024-01-10T07:42:43;103272.81;;;-7.71;82.08
53932;BME280;39844;52.496;13.482;2024-01-10T07:45:08;103264.75;;;-7.66;82.27
53932;BME280;39844;52.496;13.482;2024-01-10T07:47:34;103265.09;;;-7.63;82.23
53932;BME280;39844;52.496;13.482;2024-01-10T07:50:00;103274.53;;;-7.62;81.85
53932;BME280;39844;52.496;13.482;2024-01-10T07:52:26;103266.88;;;-7.62;81.83
53932;BME280;39844;52.496;13.482;2024-01-10T07:54:51;103266.16;;;-7.61;81.14
53932;BME280;39844;52.496;13.482;2024-01-10T07:57:16;103274.53;;;-7.62;80.71
53932;BME280;39844;52.496;13.482;2024-01-10T07:59:42;103276.34;;;-7.61;80.64
53932;BME280;39844;52.496;13.482;2024-01-10T08:02:07;103274.16;;;-7.58;80.59
53932;BME280;39844;52.496;13.482;2024-01-10T08:04:32;103269.03;;;-7.58;79.54
53932;BME280;39844;52.496;13.482;2024-01-10T08:06:57;103266.66;;;-7.57;79.92
53932;BME280;39844;52.496;13.482;2024-01-10T08:09:23;103261.88;;;-7.54;80.02
53932;BME280;39844;52.496;13.482;2024-01-10T08:11:48;103265.50;;;-7.52;80.00
53932;BME280;39844;52.496;13.482;2024-01-10T08:14:14;103268.53;;;-7.47;80.19
53932;BME280;39844;52.496;13.482;2024-01-10T08:16:39;103263.06;;;-7.43;80.63
53932;BME280;39844;52.496;13.482;2024-01-10T08:19:05;103268.81;;;-7.37;80.47
53932;BME280;39844;52.496;13.482;2024-01-10T08:21:30;103275.00;;;-7.35;79.63
53932;BME280;39844;52.496;13.482;2024-01-10T08:23:55;103273.50;;;-7.33;79.36
53932;BME280;39844;52.496;13.482;2024-01-10T08:26:21;103270.72;;;-7.28;79.46
53932;BME280;39844;52.496;13.482;2024-01-10T08:28:46;103269.38;;;-7.24;79.40
53932;BME280;39844;52.496;13.482;2024-01-10T08:31:11;103274.81;;;-7.21;79.17
53932;BME280;39844;52.496;13.482;2024-01-10T08:33:36;103265.84;;;-7.18;78.99
53932;BME280;39844;52.496;13.482;2024-01-10T08:36:02;103279.09;;;-7.13;79.02
53932;BME280;39844;52.496;13.482;2024-01-10T08:38:27;103271.94;;;-7.09;79.15
53932;BME280;39844;52.496;13.482;2024-01-10T08:40:53;103279.19;;;-7.04;78.45
53932;BME280;39844;52.496;13.482;2024-01-10T08:43:18;103276.78;;;-7.03;77.86
53932;BME280;39844;52.496;13.482;2024-01-10T08:45:44;103278.19;;;-6.98;77.91
53932;BME280;39844;52.496;13.482;2024-01-10T08:48:09;103276.28;;;-6.92;77.93
53932;BME280;39844;52.496;13.482;2024-01-10T08:50:34;103276.91;;;-6.86;77.55
53932;BME280;39844;52.496;13.482;2024-01-10T08:53:00;103285.09;;;-6.81;77.20
53932;BME280;39844;52.496;13.482;2024-01-10T08:55:25;103283.16;;;-6.75;77.47
53932;BME280;39844;52.496;13.482;2024-01-10T08:57:50;103277.06;;;-6.69;77.37
53932;BME280;39844;52.496;13.482;2024-01-10T09:00:16;103279.34;;;-6.63;77.20
53932;BME280;39844;52.496;13.482;2024-01-10T09:02:41;103280.72;;;-6.58;76.89
53932;BME280;39844;52.496;13.482;2024-01-10T09:05:07;103275.38;;;-6.53;76.86
53932;BME280;39844;52.496;13.482;2024-01-10T09:07:32;103277.81;;;-6.46;76.63
53932;BME280;39844;52.496;13.482;2024-01-10T09:09:57;103277.41;;;-6.42;76.03
53932;BME280;39844;52.496;13.482;2024-01-10T09:12:23;103281.34;;;-6.36;76.02
53932;BME280;39844;52.496;13.482;2024-01-10T09:14:48;103276.69;;;-6.32;75.45
53932;BME280;39844;52.496;13.482;2024-01-10T09:17:13;103272.06;;;-6.27;75.38
53932;BME280;39844;52.496;13.482;2024-01-10T09:19:39;103265.03;;;-6.21;75.53
53932;BME280;39844;52.496;13.482;2024-01-10T09:22:04;103268.06;;;-6.17;74.95
53932;BME280;39844;52.496;13.482;2024-01-10T09:24:30;103269.44;;;-6.12;74.43
53932;BME280;39844;52.496;13.482;2024-01-10T09:26:55;103268.44;;;-6.05;74.37
53932;BME280;39844;52.496;13.482;2024-01-10T09:29:21;103270.88;;;-5.98;74.13
53932;BME280;39844;52.496;13.482;2024-01-10T09:31:46;103263.81;;;-5.92;73.89
53932;BME280;39844;52.496;13.482;2024-01-10T09:34:12;103265.47;;;-5.84;73.87
53932;BME280;39844;52.496;13.482;2024-01-10T09:36:37;103264.59;;;-5.76;73.45
53932;BME280;39844;52.496;13.482;2024-01-10T09:39:02;103267.03;;;-5.69;73.11
53932;BME280;39844;52.496;13.482;2024-01-10T09:41:28;103257.41;;;-5.63;72.71
53932;BME280;39844;52.496;13.482;2024-01-10T09:43:53;103257.28;;;-5.56;72.60
53932;BME280;39844;52.496;13.482;2024-01-10T09:46:18;103257.00;;;-5.50;71.95
53932;BME280;39844;52.496;13.482;2024-01-10T09:48:44;103255.94;;;-5.44;71.58
53932;BME280;39844;52.496;13.482;2024-01-10T09:51:09;103252.19;;;-5.39;71.33
53932;BME280;39844;52.496;13.482;2024-01-10T09:53:35;103253.88;;;-5.31;70.89
53932;BME280;39844;52.496;13.482;2024-01-10T09:56:03;103260.66;;;-5.23;70.18
53932;BME280;39844;52.496;13.482;2024-01-10T09:58:30;103252.69;;;-5.17;69.51
53932;BME280;39844;52.496;13.482;2024-01-10T10:00:56;103256.00;;;-5.09;69.95
53932;BME280;39844;52.496;13.482;2024-01-10T10:03:22;103251.50;;;-5.03;70.17
53932;BME280;39844;52.496;13.482;2024-01-10T10:05:47;103260.53;;;-4.98;69.63
53932;BME280;39844;52.496;13.482;2024-01-10T10:08:13;103250.75;;;-4.94;69.17
53932;BME280;39844;52.496;13.482;2024-01-10T10:10:40;103242.75;;;-4.88;69.52
53932;BME280;39844;52.496;13.482;2024-01-10T10:13:05;103247.41;;;-4.84;69.40
53932;BME280;39844;52.496;13.482;2024-01-10T10:15:30;103246.22;;;-4.79;69.44
53932;BME280;39844;52.496;13.482;2024-01-10T10:17:56;103242.44;;;-4.74;69.16
53932;BME280;39844;52.496;13.482;2024-01-10T10:20:28;103242.28;;;-4.67;69.51
53932;BME280;39844;52.496;13.482;2024-01-10T10:23:07;103238.50;;;-4.62;69.37
53932;BME280;39844;52.496;13.482;2024-01-10T10:25:34;103234.88;;;-4.56;68.51
53932;BME280;39844;52.496;13.482;2024-01-10T10:28:01;103229.44;;;-4.50;68.40
53932;BME280;39844;52.496;13.482;2024-01-10T10:30:27;103231.53;;;-4.46;68.01
53932;BME280;39844;52.496;13.482;2024-01-10T10:32:53;103226.72;;;-4.43;67.72
53932;BME280;39844;52.496;13.482;2024-01-10T10:35:19;103226.25;;;-4.39;67.36
53932;BME280;39844;52.496;13.482;2024-01-10T10:37:44;103217.31;;;-4.34;67.32
53932;BME280;39844;52.496;13.482;2024-01-10T10:40:10;103212.50;;;-4.31;66.82
53932;BME280;39844;52.496;13.482;2024-01-10T10:42:37;103213.84;;;-4.26;65.97
53932;BME280;39844;52.496;13.482;2024-01-10T10:45:06;103210.03;;;-4.21;65.64
53932;BME280;39844;52.496;13.482;2024-01-10T10:47:36;103217.25;;;-4.17;64.79
53932;BME280;39844;52.496;13.482;2024-01-10T10:50:03;103216.94;;;-4.11;64.57
53932;BME280;39844;52.496;13.482;2024-01-10T10:52:30;103215.41;;;-4.09;64.44
53932;BME280;39844;52.496;13.482;2024-01-10T10:54:58;103217.81;;;-4.02;63.96
53932;BME280;39844;52.496;13.482;2024-01-10T10:57:27;103213.25;;;-3.96;63.65
53932;BME280;39844;52.496;13.482;2024-01-10T10:59:53;103218.34;;;-3.88;63.90
53932;BME280;39844;52.496;13.482;2024-01-10T11:02:21;103211.22;;;-3.81;63.54
53932;BME280;39844;52.496;13.482;2024-01-10T11:04:47;103212.56;;;-3.76;62.77
53932;BME280;39844;52.496;13.482;2024-01-10T11:07:12;103207.97;;;-3.70;62.24
53932;BME280;39844;52.496;13.482;2024-01-10T11:09:39;103211.13;;;-3.64;62.39
53932;BME280;39844;52.496;13.482;2024-01-10T11:12:39;103215.16;;;-3.58;61.24
53932;BME280;39844;52.496;13.482;2024-01-10T11:15:24;103207.13;;;-3.52;61.37
53932;BME280;39844;52.496;13.482;2024-01-10T11:20:49;103200.28;;;-3.43;59.87
53932;BME280;39844;52.496;13.482;2024-01-10T11:23:42;103199.03;;;-3.38;60.25
53932;BME280;39844;52.496;13.482;2024-01-10T11:26:08;103194.16;;;-3.35;59.69
53932;BME280;39844;52.496;13.482;2024-01-10T11:28:35;103198.81;;;-3.31;59.89
53932;BME280;39844;52.496;13.482;2024-01-10T11:31:01;103197.56;;;-3.26;59.55
53932;BME280;39844;52.496;13.482;2024-01-10T11:33:33;103185.16;;;-3.22;59.67
53932;BME280;39844;52.496;13.482;2024-01-10T11:36:13;103189.94;;;-3.16;59.40
53932;BME280;39844;52.496;13.482;2024-01-10T11:38:44;103194.84;;;-3.09;59.30
53932;BME280;39844;52.496;13.482;2024-01-10T11:41:19;103191.31;;;-3.01;58.91
53932;BME280;39844;52.496;13.482;2024-01-10T11:43:45;103193.38;;;-2.97;59.24
53932;BME280;39844;52.496;13.482;2024-01-10T11:46:10;103191.09;;;-2.94;58.81
53932;BME280;39844;52.496;13.482;2024-01-10T11:48:36;103175.94;;;-2.91;57.64
53932;BME280;39844;52.496;13.482;2024-01-10T11:51:02;103183.03;;;-2.88;56.94
53932;BME280;39844;52.496;13.482;2024-01-10T11:53:41;103180.13;;;-2.83;56.95
53932;BME280;39844;52.496;13.482;2024-01-10T11:56:10;103169.47;;;-2.77;56.86
53932;BME280;39844;52.496;13.482;2024-01-10T11:58:52;103176.97;;;-2.70;56.93
53932;BME280;39844;52.496;13.482;2024-01-10T12:01:18;103168.09;;;-2.64;56.90
53932;BME280;39844;52.496;13.482;2024-01-10T12:03:44;103167.13;;;-2.56;56.59
53932;BME280;39844;52.496;13.482;2024-01-10T12:06:09;103155.56;;;-2.50;56.62
53932;BME280;39844;52.496;13.482;2024-01-10T12:08:35;103159.44;;;-2.45;56.63
53932;BME280;39844;52.496;13.482;2024-01-10T12:11:00;103165.25;;;-2.38;55.73
53932;BME280;39844;52.496;13.482;2024-01-10T12:13:25;103157.47;;;-2.09;55.75
53932;BME280;39844;52.496;13.482;2024-01-10T12:15:51;103148.06;;;-0.86;53.58
53932;BME280;39844;52.496;13.482;2024-01-10T12:18:16;103132.16;;;-0.06;50.33
53932;BME280;39844;52.496;13.482;2024-01-10T12:20:41;103134.84;;;0.29;48.53
53932;BME280;39844;52.496;13.482;2024-01-10T12:23:07;103131.88;;;0.58;48.10
53932;BME280;39844;52.496;13.482;2024-01-10T12:25:32;103133.34;;;1.12;47.97
53932;BME280;39844;52.496;13.482;2024-01-10T12:28:01;103120.88;;;2.53;45.90
53932;BME280;39844;52.496;13.482;2024-01-10T12:30:26;103108.88;;;4.03;42.15
53932;BME280;39844;52.496;13.482;2024-01-10T12:32:52;103098.53;;;4.32;39.42
53932;BME280;39844;52.496;13.482;2024-01-10T12:35:17;103098.16;;;4.26;38.73
53932;BME280;39844;52.496;13.482;2024-01-10T12:37:53;103101.47;;;3.53;38.54